sensor_id;sensor_type;location;lat;lon;timestamp;temperature;humidity
11067;DHT22;29763;50.904;5.530;2022-08-03T00:01:27;19.80;99.90
11067;DHT22;29763;50.904;5.530;2022-08-03T00:03:52;19.80;99.90
11067;DHT22;29763;50.904;5.530;2022-08-03T00:06:18;19.80;99.90
11067;DHT22;29763;50.904;5.530;2022-08-03T00:08:43;19.70;99.90
11067;DHT22;29763;50.904;5.530;2022-08-03T00:11:09;19.70;99.90
11067;DHT22;29763;50.904;5.530;2022-08-03T00:13:35;19.60;99.90
11067;DHT22;29763;50.904;5.530;2022-08-03T00:16:01;19.60;99.90
11067;DHT22;29763;50.904;5.530;2022-08-03T00:18:26;19.60;99.90
11067;DHT22;29763;50.904;5.530;2022-08-03T00:20:52;19.50;99.90
11067;DHT22;29763;50.904;5.530;2022-08-03T00:23:18;19.40;99.90
11067;DHT22;29763;50.904;5.530;2022-08-03T00:25:43;19.40;99.90
11067;DHT22;29763;50.904;5.530;2022-08-03T00:28:09;19.40;99.90
11067;DHT22;29763;50.904;5.530;2022-08-03T00:30:35;19.40;99.90
11067;DHT22;29763;50.904;5.530;2022-08-03T00:33:01;19.40;99.90
11067;DHT22;29763;50.904;5.530;2022-08-03T00:35:28;19.40;99.90
11067;DHT22;29763;50.904;5.530;2022-08-03T00:37:54;19.40;99.90
11067;DHT22;29763;50.904;5.530;2022-08-03T00:40:19;19.40;99.90
11067;DHT22;29763;50.904;5.530;2022-08-03T00:42:56;19.40;99.90
11067;DHT22;29763;50.904;5.530;2022-08-03T00:45:29;19.30;99.90
11067;DHT22;29763;50.904;5.530;2022-08-03T00:47:56;19.20;99.90
11067;DHT22;29763;50.904;5.530;2022-08-03T00:50:23;19.20;99.90
11067;DHT22;29763;50.904;5.530;2022-08-03T00:52:51;19.20;99.90
11067;DHT22;29763;50.904;5.530;2022-08-03T00:55:17;19.10;99.90
11067;DHT22;29763;50.904;5.530;2022-08-03T00:57:43;19.10;99.90
11067;DHT22;29763;50.904;5.530;2022-08-03T01:00:11;19.10;99.90
11067;DHT22;29763;50.904;5.530;2022-08-03T01:02:38;19.00;99.90
11067;DHT22;29763;50.904;5.530;2022-08-03T01:05:04;19.10;99.90
11067;DHT22;29763;50.904;5.530;2022-08-03T01:15:41;19.00;99.90
11067;DHT22;29763;50.904;5.530;2022-08-03T01:18:21;18.90;99.90
11067;DHT22;29763;50.904;5.530;2022-08-03T01:20:54;18.80;99.90
11067;DHT22;29763;50.904;5.530;2022-08-03T01:29:28;18.60;99.90
11067;DHT22;29763;50.904;5.530;2022-08-03T01:32:04;18.50;99.90
11067;DHT22;29763;50.904;5.530;2022-08-03T01:34:35;18.60;99.90
11067;DHT22;29763;50.904;5.530;2022-08-03T01:37:06;18.50;99.90
11067;DHT22;29763;50.904;5.530;2022-08-03T01:39:36;18.50;99.90
11067;DHT22;29763;50.904;5.530;2022-08-03T01:42:05;18.50;99.90
11067;DHT22;29763;50.904;5.530;2022-08-03T01:44:36;18.50;99.90
11067;DHT22;29763;50.904;5.530;2022-08-03T01:47:03;18.50;99.90
11067;DHT22;29763;50.904;5.530;2022-08-03T01:49:34;18.50;99.90
11067;DHT22;29763;50.904;5.530;2022-08-03T01:52:03;18.50;99.90
11067;DHT22;29763;50.904;5.530;2022-08-03T01:54:31;18.40;99.90
11067;DHT22;29763;50.904;5.530;2022-08-03T01:56:58;18.50;99.90
11067;DHT22;29763;50.904;5.530;2022-08-03T01:59:25;18.40;99.90
11067;DHT22;29763;50.904;5.530;2022-08-03T02:01:53;18.40;99.90
11067;DHT22;29763;50.904;5.530;2022-08-03T02:04:23;18.40;99.90
11067;DHT22;29763;50.904;5.530;2022-08-03T02:06:51;18.40;99.90
11067;DHT22;29763;50.904;5.530;2022-08-03T02:09:20;18.30;99.90
11067;DHT22;29763;50.904;5.530;2022-08-03T02:11:46;18.30;99.90
11067;DHT22;29763;50.904;5.530;2022-08-03T02:14:14;18.20;99.90
11067;DHT22;29763;50.904;5.530;2022-08-03T02:16:41;18.20;99.90
11067;DHT22;29763;50.904;5.530;2022-08-03T02:19:07;18.20;99.90
11067;DHT22;29763;50.904;5.530;2022-08-03T02:21:36;18.10;99.90
11067;DHT22;29763;50.904;5.530;2022-08-03T02:24:03;18.10;99.90
11067;DHT22;29763;50.904;5.530;2022-08-03T02:26:30;18.00;99.90
11067;DHT22;29763;50.904;5.530;2022-08-03T02:29:02;18.00;99.90
11067;DHT22;29763;50.904;5.530;2022-08-03T02:31:32;18.00;99.90
11067;DHT22;29763;50.904;5.530;2022-08-03T02:34:02;18.00;99.90
11067;DHT22;29763;50.904;5.530;2022-08-03T02:36:35;18.00;99.90
11067;DHT22;29763;50.904;5.530;2022-08-03T02:39:02;18.00;99.90
11067;DHT22;29763;50.904;5.530;2022-08-03T02:41:37;18.00;99.90
11067;DHT22;29763;50.904;5.530;2022-08-03T02:44:08;18.00;99.90
11067;DHT22;29763;50.904;5.530;2022-08-03T02:46:37;17.90;99.90
11067;DHT22;29763;50.904;5.530;2022-08-03T02:49:04;17.80;99.90
11067;DHT22;29763;50.904;5.530;2022-08-03T02:51:33;17.80;99.90
11067;DHT22;29763;50.904;5.530;2022-08-03T02:54:01;17.70;99.90
11067;DHT22;29763;50.904;5.530;2022-08-03T02:56:28;17.70;99.90
11067;DHT22;29763;50.904;5.530;2022-08-03T02:58:55;17.60;99.90
11067;DHT22;29763;50.904;5.530;2022-08-03T03:01:24;17.60;99.90
11067;DHT22;29763;50.904;5.530;2022-08-03T03:03:52;17.60;99.90
11067;DHT22;29763;50.904;5.530;2022-08-03T03:06:18;17.60;99.90
11067;DHT22;29763;50.904;5.530;2022-08-03T03:08:45;17.60;99.90
11067;DHT22;29763;50.904;5.530;2022-08-03T03:11:13;17.50;99.90
11067;DHT22;29763;50.904;5.530;2022-08-03T03:13:44;17.50;99.90
11067;DHT22;29763;50.904;5.530;2022-08-03T03:16:11;17.50;99.90
11067;DHT22;29763;50.904;5.530;2022-08-03T03:18:38;17.50;99.90
11067;DHT22;29763;50.904;5.530;2022-08-03T03:21:06;17.40;99.90
11067;DHT22;29763;50.904;5.530;2022-08-03T03:23:37;17.40;99.90
11067;DHT22;29763;50.904;5.530;2022-08-03T03:26:05;17.40;99.90
11067;DHT22;29763;50.904;5.530;2022-08-03T03:28:31;17.40;99.90
11067;DHT22;29763;50.904;5.530;2022-08-03T03:30:58;17.30;99.90
11067;DHT22;29763;50.904;5.530;2022-08-03T03:33:24;17.40;99.90
11067;DHT22;29763;50.904;5.530;2022-08-03T03:35:50;17.40;99.90
11067;DHT22;29763;50.904;5.530;2022-08-03T03:38:17;17.40;99.90
11067;DHT22;29763;50.904;5.530;2022-08-03T03:40:43;17.30;99.90
11067;DHT22;29763;50.904;5.530;2022-08-03T03:43:10;17.30;99.90
11067;DHT22;29763;50.904;5.530;2022-08-03T03:45:38;17.30;99.90
11067;DHT22;29763;50.904;5.530;2022-08-03T03:48:05;17.30;99.90
11067;DHT22;29763;50.904;5.530;2022-08-03T03:50:32;17.30;99.90
11067;DHT22;29763;50.904;5.530;2022-08-03T03:52:58;17.30;99.90
11067;DHT22;29763;50.904;5.530;2022-08-03T03:55:24;17.20;99.90
11067;DHT22;29763;50.904;5.530;2022-08-03T03:57:49;17.20;99.90
11067;DHT22;29763;50.904;5.530;2022-08-03T04:00:17;17.30;99.90
11067;DHT22;29763;50.904;5.530;2022-08-03T04:02:46;17.30;99.90
11067;DHT22;29763;50.904;5.530;2022-08-03T04:05:13;17.30;99.90
11067;DHT22;29763;50.904;5.530;2022-08-03T04:08:06;17.20;99.90
11067;DHT22;29763;50.904;5.530;2022-08-03T04:16:17;17.00;99.90
11067;DHT22;29763;50.904;5.530;2022-08-03T04:18:47;17.10;99.90
11067;DHT22;29763;50.904;5.530;2022-08-03T04:21:16;17.10;99.90
11067;DHT22;29763;50.904;5.530;2022-08-03T04:23:46;17.10;99.90
11067;DHT22;29763;50.904;5.530;2022-08-03T04:26:14;17.10;99.90
11067;DHT22;29763;50.904;5.530;2022-08-03T04:28:44;17.10;99.90
11067;DHT22;29763;50.904;5.530;2022-08-03T04:31:12;17.10;99.90
11067;DHT22;29763;50.904;5.530;2022-08-03T04:33:40;17.10;99.90
11067;DHT22;29763;50.904;5.530;2022-08-03T04:36:09;17.20;99.90
11067;DHT22;29763;50.904;5.530;2022-08-03T04:38:42;17.20;99.90
11067;DHT22;29763;50.904;5.530;2022-08-03T04:41:08;17.20;99.90
11067;DHT22;29763;50.904;5.530;2022-08-03T04:43:35;17.20;99.90
11067;DHT22;29763;50.904;5.530;2022-08-03T04:46:04;17.20;99.90
11067;DHT22;29763;50.904;5.530;2022-08-03T04:48:31;17.20;99.90
11067;DHT22;29763;50.904;5.530;2022-08-03T04:50:57;17.20;99.90
11067;DHT22;29763;50.904;5.530;2022-08-03T04:53:25;17.10;99.90
11067;DHT22;29763;50.904;5.530;2022-08-03T04:55:50;17.20;99.90
11067;DHT22;29763;50.904;5.530;2022-08-03T04:58:16;17.20;99.90
11067;DHT22;29763;50.904;5.530;2022-08-03T05:00:42;17.20;99.90
11067;DHT22;29763;50.904;5.530;2022-08-03T05:03:09;17.20;99.90
11067;DHT22;29763;50.904;5.530;2022-08-03T05:05:35;17.30;99.90
11067;DHT22;29763;50.904;5.530;2022-08-03T05:08:01;17.30;99.90
11067;DHT22;29763;50.904;5.530;2022-08-03T05:10:26;17.40;99.90
11067;DHT22;29763;50.904;5.530;2022-08-03T05:12:52;17.40;99.90
11067;DHT22;29763;50.904;5.530;2022-08-03T05:15:18;17.40;99.90
11067;DHT22;29763;50.904;5.530;2022-08-03T05:17:43;17.40;99.90
11067;DHT22;29763;50.904;5.530;2022-08-03T05:20:10;17.40;99.90
11067;DHT22;29763;50.904;5.530;2022-08-03T05:22:36;17.40;99.90
11067;DHT22;29763;50.904;5.530;2022-08-03T05:25:02;17.60;99.90
11067;DHT22;29763;50.904;5.530;2022-08-03T05:27:28;17.60;99.90
11067;DHT22;29763;50.904;5.530;2022-08-03T05:29:54;17.80;99.90
11067;DHT22;29763;50.904;5.530;2022-08-03T05:32:19;18.00;99.90
11067;DHT22;29763;50.904;5.530;2022-08-03T05:34:45;18.10;99.90
11067;DHT22;29763;50.904;5.530;2022-08-03T05:37:11;18.30;99.90
11067;DHT22;29763;50.904;5.530;2022-08-03T05:39:36;18.40;99.90
11067;DHT22;29763;50.904;5.530;2022-08-03T05:42:02;18.60;99.90
11067;DHT22;29763;50.904;5.530;2022-08-03T05:44:28;18.80;99.90
11067;DHT22;29763;50.904;5.530;2022-08-03T05:46:55;18.90;99.90
11067;DHT22;29763;50.904;5.530;2022-08-03T05:49:20;19.20;99.90
11067;DHT22;29763;50.904;5.530;2022-08-03T05:51:46;19.40;99.90
11067;DHT22;29763;50.904;5.530;2022-08-03T05:54:12;19.70;99.90
11067;DHT22;29763;50.904;5.530;2022-08-03T05:56:37;19.90;99.90
11067;DHT22;29763;50.904;5.530;2022-08-03T05:59:05;20.10;99.90
11067;DHT22;29763;50.904;5.530;2022-08-03T06:01:31;20.40;99.90
11067;DHT22;29763;50.904;5.530;2022-08-03T06:03:57;20.70;99.90
11067;DHT22;29763;50.904;5.530;2022-08-03T06:06:23;21.00;99.90
11067;DHT22;29763;50.904;5.530;2022-08-03T06:08:49;21.30;99.90
11067;DHT22;29763;50.904;5.530;2022-08-03T06:11:15;21.70;99.90
11067;DHT22;29763;50.904;5.530;2022-08-03T06:13:41;22.20;99.90
11067;DHT22;29763;50.904;5.530;2022-08-03T06:16:07;22.50;99.90
11067;DHT22;29763;50.904;5.530;2022-08-03T06:18:34;22.90;99.90
11067;DHT22;29763;50.904;5.530;2022-08-03T06:21:00;23.30;99.90
11067;DHT22;29763;50.904;5.530;2022-08-03T06:23:25;23.60;99.90
11067;DHT22;29763;50.904;5.530;2022-08-03T06:25:51;23.90;99.90
11067;DHT22;29763;50.904;5.530;2022-08-03T06:28:17;24.20;99.90
11067;DHT22;29763;50.904;5.530;2022-08-03T06:30:43;24.60;99.90
11067;DHT22;29763;50.904;5.530;2022-08-03T06:33:09;24.90;99.90
11067;DHT22;29763;50.904;5.530;2022-08-03T06:35:35;25.20;99.90
11067;DHT22;29763;50.904;5.530;2022-08-03T06:38:00;25.50;99.90
11067;DHT22;29763;50.904;5.530;2022-08-03T06:40:27;25.80;99.90
11067;DHT22;29763;50.904;5.530;2022-08-03T06:42:57;26.00;99.90
11067;DHT22;29763;50.904;5.530;2022-08-03T06:45:23;26.30;99.90
11067;DHT22;29763;50.904;5.530;2022-08-03T06:48:17;26.50;99.90
11067;DHT22;29763;50.904;5.530;2022-08-03T06:50:42;26.60;99.90
11067;DHT22;29763;50.904;5.530;2022-08-03T06:53:09;26.80;99.90
11067;DHT22;29763;50.904;5.530;2022-08-03T06:55:35;27.00;99.90
11067;DHT22;29763;50.904;5.530;2022-08-03T06:58:00;27.30;99.90
11067;DHT22;29763;50.904;5.530;2022-08-03T07:00:26;27.60;99.90
11067;DHT22;29763;50.904;5.530;2022-08-03T07:02:52;27.70;99.90
11067;DHT22;29763;50.904;5.530;2022-08-03T07:05:18;27.80;99.90
11067;DHT22;29763;50.904;5.530;2022-08-03T07:07:44;28.00;99.90
11067;DHT22;29763;50.904;5.530;2022-08-03T07:10:10;28.40;99.90
11067;DHT22;29763;50.904;5.530;2022-08-03T07:12:36;28.70;99.90
11067;DHT22;29763;50.904;5.530;2022-08-03T07:15:04;29.00;99.90
11067;DHT22;29763;50.904;5.530;2022-08-03T07:17:32;29.20;99.90
11067;DHT22;29763;50.904;5.530;2022-08-03T07:20:00;29.60;99.90
11067;DHT22;29763;50.904;5.530;2022-08-03T07:22:26;29.90;99.90
11067;DHT22;29763;50.904;5.530;2022-08-03T07:24:51;30.20;99.90
11067;DHT22;29763;50.904;5.530;2022-08-03T07:27:17;30.40;99.90
11067;DHT22;29763;50.904;5.530;2022-08-03T07:29:43;30.60;99.90
11067;DHT22;29763;50.904;5.530;2022-08-03T07:32:08;30.70;99.90
11067;DHT22;29763;50.904;5.530;2022-08-03T07:34:34;30.70;99.90
11067;DHT22;29763;50.904;5.530;2022-08-03T07:37:00;30.80;99.90
11067;DHT22;29763;50.904;5.530;2022-08-03T07:39:25;31.10;99.90
11067;DHT22;29763;50.904;5.530;2022-08-03T07:41:51;31.40;99.90
11067;DHT22;29763;50.904;5.530;2022-08-03T07:44:20;31.80;99.90
11067;DHT22;29763;50.904;5.530;2022-08-03T07:46:45;32.10;99.90
11067;DHT22;29763;50.904;5.530;2022-08-03T07:49:11;32.40;99.90
11067;DHT22;29763;50.904;5.530;2022-08-03T07:51:37;32.60;99.90
11067;DHT22;29763;50.904;5.530;2022-08-03T07:54:03;32.50;99.90
11067;DHT22;29763;50.904;5.530;2022-08-03T07:56:29;32.50;99.90
11067;DHT22;29763;50.904;5.530;2022-08-03T07:58:55;32.90;99.90
11067;DHT22;29763;50.904;5.530;2022-08-03T08:01:21;33.20;99.90
11067;DHT22;29763;50.904;5.530;2022-08-03T08:03:48;33.40;99.50
11067;DHT22;29763;50.904;5.530;2022-08-03T08:06:15;33.40;99.10
11067;DHT22;29763;50.904;5.530;2022-08-03T08:08:42;33.50;99.00
11067;DHT22;29763;50.904;5.530;2022-08-03T08:11:07;33.30;98.80
11067;DHT22;29763;50.904;5.530;2022-08-03T08:13:33;33.50;98.70
11067;DHT22;29763;50.904;5.530;2022-08-03T08:15:59;33.40;98.50
11067;DHT22;29763;50.904;5.530;2022-08-03T08:18:25;33.40;98.90
11067;DHT22;29763;50.904;5.530;2022-08-03T08:20:54;33.50;98.80
11067;DHT22;29763;50.904;5.530;2022-08-03T08:23:20;33.30;98.50
11067;DHT22;29763;50.904;5.530;2022-08-03T08:25:50;33.40;98.40
11067;DHT22;29763;50.904;5.530;2022-08-03T08:28:17;33.30;98.30
11067;DHT22;29763;50.904;5.530;2022-08-03T08:30:43;33.70;97.80
11067;DHT22;29763;50.904;5.530;2022-08-03T08:33:09;34.00;96.90
11067;DHT22;29763;50.904;5.530;2022-08-03T08:35:35;34.10;96.30
11067;DHT22;29763;50.904;5.530;2022-08-03T08:38:01;33.50;96.30
11067;DHT22;29763;50.904;5.530;2022-08-03T08:40:27;33.60;96.80
11067;DHT22;29763;50.904;5.530;2022-08-03T08:42:53;33.50;96.50
11067;DHT22;29763;50.904;5.530;2022-08-03T08:45:19;33.20;96.80
11067;DHT22;29763;50.904;5.530;2022-08-03T08:47:47;33.40;97.00
11067;DHT22;29763;50.904;5.530;2022-08-03T08:50:14;33.30;97.30
11067;DHT22;29763;50.904;5.530;2022-08-03T08:52:42;33.50;97.10
11067;DHT22;29763;50.904;5.530;2022-08-03T08:55:20;34.00;97.00
11067;DHT22;29763;50.904;5.530;2022-08-03T08:57:54;34.40;96.70
11067;DHT22;29763;50.904;5.530;2022-08-03T09:00:21;34.50;96.20
11067;DHT22;29763;50.904;5.530;2022-08-03T09:02:47;34.50;95.90
11067;DHT22;29763;50.904;5.530;2022-08-03T09:05:14;34.30;95.80
11067;DHT22;29763;50.904;5.530;2022-08-03T09:07:42;34.60;95.60
11067;DHT22;29763;50.904;5.530;2022-08-03T09:10:09;34.90;95.60
11067;DHT22;29763;50.904;5.530;2022-08-03T09:12:37;35.20;95.10
11067;DHT22;29763;50.904;5.530;2022-08-03T09:15:21;35.30;94.60
11067;DHT22;29763;50.904;5.530;2022-08-03T09:17:48;35.50;94.30
11067;DHT22;29763;50.904;5.530;2022-08-03T09:20:14;35.70;93.90
11067;DHT22;29763;50.904;5.530;2022-08-03T09:23:09;36.00;93.50
11067;DHT22;29763;50.904;5.530;2022-08-03T09:25:37;36.30;93.30
11067;DHT22;29763;50.904;5.530;2022-08-03T09:28:11;36.80;92.70
11067;DHT22;29763;50.904;5.530;2022-08-03T09:30:38;36.90;91.50
11067;DHT22;29763;50.904;5.530;2022-08-03T09:33:06;36.70;91.70
11067;DHT22;29763;50.904;5.530;2022-08-03T09:35:32;36.60;91.80
11067;DHT22;29763;50.904;5.530;2022-08-03T09:38:17;36.20;91.10
11067;DHT22;29763;50.904;5.530;2022-08-03T09:40:44;35.50;91.10
11067;DHT22;29763;50.904;5.530;2022-08-03T09:43:11;35.90;91.70
11067;DHT22;29763;50.904;5.530;2022-08-03T09:45:38;36.30;91.30
11067;DHT22;29763;50.904;5.530;2022-08-03T09:50:56;36.20;90.50
11067;DHT22;29763;50.904;5.530;2022-08-03T09:53:23;36.20;90.30
11067;DHT22;29763;50.904;5.530;2022-08-03T09:58:23;36.10;90.60
11067;DHT22;29763;50.904;5.530;2022-08-03T10:01:00;36.10;90.40
11067;DHT22;29763;50.904;5.530;2022-08-03T10:03:29;36.20;89.40
11067;DHT22;29763;50.904;5.530;2022-08-03T10:05:56;36.50;89.60
11067;DHT22;29763;50.904;5.530;2022-08-03T10:08:22;36.70;90.10
11067;DHT22;29763;50.904;5.530;2022-08-03T10:10:49;36.70;87.10
11067;DHT22;29763;50.904;5.530;2022-08-03T10:13:17;36.80;86.40
11067;DHT22;29763;50.904;5.530;2022-08-03T10:15:44;36.90;86.40
11067;DHT22;29763;50.904;5.530;2022-08-03T10:18:09;37.00;85.70
11067;DHT22;29763;50.904;5.530;2022-08-03T10:20:49;37.30;85.30
11067;DHT22;29763;50.904;5.530;2022-08-03T10:23:16;37.20;85.10
11067;DHT22;29763;50.904;5.530;2022-08-03T10:25:48;36.90;84.40
11067;DHT22;29763;50.904;5.530;2022-08-03T10:28:17;36.80;85.30
11067;DHT22;29763;50.904;5.530;2022-08-03T10:30:47;37.20;84.80
11067;DHT22;29763;50.904;5.530;2022-08-03T10:33:18;37.10;83.40
11067;DHT22;29763;50.904;5.530;2022-08-03T10:35:45;37.00;81.50
11067;DHT22;29763;50.904;5.530;2022-08-03T10:38:19;37.30;81.30
11067;DHT22;29763;50.904;5.530;2022-08-03T10:40:49;37.50;81.70
11067;DHT22;29763;50.904;5.530;2022-08-03T10:43:21;37.60;82.00
11067;DHT22;29763;50.904;5.530;2022-08-03T10:45:50;38.20;80.40
11067;DHT22;29763;50.904;5.530;2022-08-03T10:48:17;38.80;80.30
11067;DHT22;29763;50.904;5.530;2022-08-03T10:50:44;38.90;78.50
11067;DHT22;29763;50.904;5.530;2022-08-03T10:53:10;38.60;79.00
11067;DHT22;29763;50.904;5.530;2022-08-03T10:55:36;39.00;78.20
11067;DHT22;29763;50.904;5.530;2022-08-03T11:01:04;39.00;77.70
11067;DHT22;29763;50.904;5.530;2022-08-03T11:03:30;39.00;77.00
11067;DHT22;29763;50.904;5.530;2022-08-03T11:06:29;39.30;76.50
11067;DHT22;29763;50.904;5.530;2022-08-03T11:11:37;39.30;75.00
11067;DHT22;29763;50.904;5.530;2022-08-03T11:14:09;39.20;74.90
11067;DHT22;29763;50.904;5.530;2022-08-03T11:16:42;39.40;74.30
11067;DHT22;29763;50.904;5.530;2022-08-03T11:19:17;39.10;74.70
11067;DHT22;29763;50.904;5.530;2022-08-03T11:27:27;39.90;74.30
11067;DHT22;29763;50.904;5.530;2022-08-03T11:43:01;38.40;74.40
11067;DHT22;29763;50.904;5.530;2022-08-03T11:45:27;38.60;75.80
11067;DHT22;29763;50.904;5.530;2022-08-03T11:47:56;38.60;74.80
11067;DHT22;29763;50.904;5.530;2022-08-03T11:50:23;39.10;74.70
11067;DHT22;29763;50.904;5.530;2022-08-03T11:52:50;39.40;73.60
11067;DHT22;29763;50.904;5.530;2022-08-03T11:55:19;39.40;73.70
11067;DHT22;29763;50.904;5.530;2022-08-03T11:57:46;39.60;73.40
11067;DHT22;29763;50.904;5.530;2022-08-03T12:00:30;39.40;73.60
11067;DHT22;29763;50.904;5.530;2022-08-03T12:05:45;39.70;71.80
11067;DHT22;29763;50.904;5.530;2022-08-03T12:08:13;40.10;72.10
11067;DHT22;29763;50.904;5.530;2022-08-03T12:10:39;39.90;71.20
11067;DHT22;29763;50.904;5.530;2022-08-03T12:13:09;39.70;71.50
11067;DHT22;29763;50.904;5.530;2022-08-03T12:15:35;39.10;70.40
11067;DHT22;29763;50.904;5.530;2022-08-03T12:18:10;39.10;72.10
11067;DHT22;29763;50.904;5.530;2022-08-03T12:20:36;39.40;71.30
11067;DHT22;29763;50.904;5.530;2022-08-03T12:23:04;39.40;72.10
11067;DHT22;29763;50.904;5.530;2022-08-03T12:25:32;39.30;71.30
11067;DHT22;29763;50.904;5.530;2022-08-03T12:30:38;39.30;71.60
11067;DHT22;29763;50.904;5.530;2022-08-03T12:36:48;39.00;71.70
11067;DHT22;29763;50.904;5.530;2022-08-03T12:39:14;39.00;72.80
11067;DHT22;29763;50.904;5.530;2022-08-03T12:41:39;39.20;72.50
11067;DHT22;29763;50.904;5.530;2022-08-03T12:44:06;39.70;72.20
11067;DHT22;29763;50.904;5.530;2022-08-03T12:46:37;40.30;71.10
11067;DHT22;29763;50.904;5.530;2022-08-03T12:49:12;40.50;68.50
11067;DHT22;29763;50.904;5.530;2022-08-03T12:54:19;40.70;68.60
11067;DHT22;29763;50.904;5.530;2022-08-03T12:59:29;40.30;68.00
11067;DHT22;29763;50.904;5.530;2022-08-03T13:01:55;40.10;69.00
11067;DHT22;29763;50.904;5.530;2022-08-03T13:04:30;40.10;69.10
11067;DHT22;29763;50.904;5.530;2022-08-03T13:07:04;39.70;68.90
11067;DHT22;29763;50.904;5.530;2022-08-03T13:09:40;40.10;68.70
11067;DHT22;29763;50.904;5.530;2022-08-03T13:12:12;40.10;68.20
11067;DHT22;29763;50.904;5.530;2022-08-03T13:14:38;40.10;68.10
11067;DHT22;29763;50.904;5.530;2022-08-03T13:17:05;40.50;68.30
11067;DHT22;29763;50.904;5.530;2022-08-03T13:19:38;40.50;67.10
11067;DHT22;29763;50.904;5.530;2022-08-03T13:22:20;40.10;67.10
11067;DHT22;29763;50.904;5.530;2022-08-03T13:24:50;39.90;66.90
11067;DHT22;29763;50.904;5.530;2022-08-03T13:27:16;40.10;68.40
11067;DHT22;29763;50.904;5.530;2022-08-03T13:29:42;40.00;66.20
11067;DHT22;29763;50.904;5.530;2022-08-03T13:32:09;39.80;67.80
11067;DHT22;29763;50.904;5.530;2022-08-03T13:34:34;39.80;67.90
11067;DHT22;29763;50.904;5.530;2022-08-03T13:37:00;39.90;68.60
11067;DHT22;29763;50.904;5.530;2022-08-03T13:39:26;39.90;67.80
11067;DHT22;29763;50.904;5.530;2022-08-03T13:41:52;39.50;66.50
11067;DHT22;29763;50.904;5.530;2022-08-03T13:44:18;39.30;67.10
11067;DHT22;29763;50.904;5.530;2022-08-03T13:46:45;39.60;66.50
11067;DHT22;29763;50.904;5.530;2022-08-03T13:49:11;39.80;67.40
11067;DHT22;29763;50.904;5.530;2022-08-03T13:51:36;39.70;67.80
11067;DHT22;29763;50.904;5.530;2022-08-03T13:54:02;39.70;67.40
11067;DHT22;29763;50.904;5.530;2022-08-03T13:56:29;39.70;67.80
11067;DHT22;29763;50.904;5.530;2022-08-03T13:58:55;39.70;66.80
11067;DHT22;29763;50.904;5.530;2022-08-03T14:01:21;39.70;67.00
11067;DHT22;29763;50.904;5.530;2022-08-03T14:03:47;39.60;67.10
11067;DHT22;29763;50.904;5.530;2022-08-03T14:06:17;39.70;67.30
11067;DHT22;29763;50.904;5.530;2022-08-03T14:08:43;39.70;65.80
11067;DHT22;29763;50.904;5.530;2022-08-03T14:11:09;39.60;66.20
11067;DHT22;29763;50.904;5.530;2022-08-03T14:13:35;39.40;65.40
11067;DHT22;29763;50.904;5.530;2022-08-03T14:16:01;39.10;67.30
11067;DHT22;29763;50.904;5.530;2022-08-03T14:18:27;39.00;67.20
11067;DHT22;29763;50.904;5.530;2022-08-03T14:20:52;39.20;67.60
11067;DHT22;29763;50.904;5.530;2022-08-03T14:23:18;39.40;66.80
11067;DHT22;29763;50.904;5.530;2022-08-03T14:25:44;39.60;67.70
11067;DHT22;29763;50.904;5.530;2022-08-03T14:28:10;39.70;66.20
11067;DHT22;29763;50.904;5.530;2022-08-03T14:30:36;39.80;67.00
11067;DHT22;29763;50.904;5.530;2022-08-03T14:33:02;39.70;66.20
11067;DHT22;29763;50.904;5.530;2022-08-03T14:35:27;39.50;66.50
11067;DHT22;29763;50.904;5.530;2022-08-03T14:37:53;39.50;66.70
11067;DHT22;29763;50.904;5.530;2022-08-03T14:40:19;39.70;66.60
11067;DHT22;29763;50.904;5.530;2022-08-03T14:42:45;40.00;66.80
11067;DHT22;29763;50.904;5.530;2022-08-03T14:45:11;40.30;66.30
11067;DHT22;29763;50.904;5.530;2022-08-03T14:47:38;40.10;64.60
11067;DHT22;29763;50.904;5.530;2022-08-03T14:50:04;39.30;65.30
11067;DHT22;29763;50.904;5.530;2022-08-03T14:52:31;38.40;66.70
11067;DHT22;29763;50.904;5.530;2022-08-03T14:54:57;37.80;68.70
11067;DHT22;29763;50.904;5.530;2022-08-03T14:57:23;37.80;69.10
11067;DHT22;29763;50.904;5.530;2022-08-03T14:59:49;37.80;68.50
11067;DHT22;29763;50.904;5.530;2022-08-03T15:02:14;37.80;68.90
11067;DHT22;29763;50.904;5.530;2022-08-03T15:04:40;37.90;68.10
11067;DHT22;29763;50.904;5.530;2022-08-03T15:07:06;37.90;68.10
11067;DHT22;29763;50.904;5.530;2022-08-03T15:09:35;37.70;67.90
11067;DHT22;29763;50.904;5.530;2022-08-03T15:12:02;37.50;67.30
11067;DHT22;29763;50.904;5.530;2022-08-03T15:14:28;37.50;68.60
11067;DHT22;29763;50.904;5.530;2022-08-03T15:16:53;37.30;68.50
11067;DHT22;29763;50.904;5.530;2022-08-03T15:19:19;37.70;69.10
11067;DHT22;29763;50.904;5.530;2022-08-03T15:21:45;38.00;67.50
11067;DHT22;29763;50.904;5.530;2022-08-03T15:24:10;38.20;67.20
11067;DHT22;29763;50.904;5.530;2022-08-03T15:26:36;38.40;66.70
11067;DHT22;29763;50.904;5.530;2022-08-03T15:29:01;38.70;67.20
11067;DHT22;29763;50.904;5.530;2022-08-03T15:31:28;38.70;65.90
11067;DHT22;29763;50.904;5.530;2022-08-03T15:33:53;38.80;66.50
11067;DHT22;29763;50.904;5.530;2022-08-03T15:36:19;38.70;66.80
11067;DHT22;29763;50.904;5.530;2022-08-03T15:38:45;38.70;66.50
11067;DHT22;29763;50.904;5.530;2022-08-03T15:41:14;38.70;66.00
11067;DHT22;29763;50.904;5.530;2022-08-03T15:43:40;38.80;65.50
11067;DHT22;29763;50.904;5.530;2022-08-03T15:46:06;39.00;65.10
11067;DHT22;29763;50.904;5.530;2022-08-03T15:48:32;39.00;64.50
11067;DHT22;29763;50.904;5.530;2022-08-03T15:50:58;39.00;64.70
11067;DHT22;29763;50.904;5.530;2022-08-03T15:53:24;39.00;65.40
11067;DHT22;29763;50.904;5.530;2022-08-03T15:55:50;38.80;63.30
11067;DHT22;29763;50.904;5.530;2022-08-03T15:58:15;38.90;64.30
11067;DHT22;29763;50.904;5.530;2022-08-03T16:00:42;38.80;64.30
11067;DHT22;29763;50.904;5.530;2022-08-03T16:03:08;38.40;65.00
11067;DHT22;29763;50.904;5.530;2022-08-03T16:05:33;38.30;65.80
11067;DHT22;29763;50.904;5.530;2022-08-03T16:07:59;38.20;66.50
11067;DHT22;29763;50.904;5.530;2022-08-03T16:10:25;38.40;65.90
11067;DHT22;29763;50.904;5.530;2022-08-03T16:12:55;38.50;65.30
11067;DHT22;29763;50.904;5.530;2022-08-03T16:15:21;38.80;67.00
11067;DHT22;29763;50.904;5.530;2022-08-03T16:17:46;39.00;64.70
11067;DHT22;29763;50.904;5.530;2022-08-03T16:20:12;39.10;64.90
11067;DHT22;29763;50.904;5.530;2022-08-03T16:22:46;39.10;64.90
11067;DHT22;29763;50.904;5.530;2022-08-03T16:25:13;39.10;64.40
11067;DHT22;29763;50.904;5.530;2022-08-03T16:27:39;39.00;64.30
11067;DHT22;29763;50.904;5.530;2022-08-03T16:30:06;38.90;64.60
11067;DHT22;29763;50.904;5.530;2022-08-03T16:32:32;38.90;65.10
11067;DHT22;29763;50.904;5.530;2022-08-03T16:34:59;38.70;64.30
11067;DHT22;29763;50.904;5.530;2022-08-03T16:37:25;38.70;65.00